Attività con fini culturali e ricreativi - Codice Fiscale 91122750689  


METAR

LIBP 290650Z 23011G21KT 210V280 9999 FEW040 30/11 Q1004

Informazioni sul contatto

Email:
Questo indirizzo email è protetto dagli spambots. È necessario abilitare JavaScript per vederlo.

Modulo contatti

Send an Email

Ultimi caricamenti...


I-BBPE Babcock AgustaWestland AW169

 


I-BBPE Babcock AgustaWestland AW169

 


I-BBPE Babcock AgustaWestland AW169

Questo sito non utilizza cookie di profilazione. Il sito utilizza cookie tecnici, di analisi anonima di prima parte e di terze parti per servizi di social network.